Parandowski — 9HA4641 — position and weather

sailwx.info

Track history (hours):
 
Tides and Currents Weather Stations Pressure Air Temp Water Temp Dewpoint Dewpoint Depression Visibility Wind Speed Wind Dir Waves Ship Positions

Parandowski

Last reported at 2017-Dec-10 13:52 UTC. Time now 2017-Dec-12 19:54 UTC.
Position N 22°03' E 119°23'.

Length 200 m; draft 10 m.

Type: Ship. MMSI: 248403000.

Date/timePositionNaut miles runAvg speedWind from/ knotsBaromVisibWave heightAir tempDewpointWater temp
2017-Dec-10 13:52N 22°03' E 119°23'512.1
2017-Dec-10 13:29N 22°07' E 119°26'612.7
2017-Dec-10 13:00N 22°12' E 119°30'713.0
2017-Dec-10 12:28N 22°18' E 119°34'613.1
2017-Dec-10 12:00N 22°23' E 119°37'713.9
2017-Dec-10 11:30N 22°29' E 119°41'2413.7
2017-Dec-10 09:45N 22°52' E 119°48'1613.8
2017-Dec-10 08:35N 23°09' E 119°48'213.0
2017-Dec-10 08:25N 23°11' E 119°48'613.2
2017-Dec-10 08:00N 23°16' E 119°49'612.8
2017-Dec-10 07:30N 23°22' E 119°49'612.4
2017-Dec-10 07:01N 23°29' E 119°49'611.5
2017-Dec-10 06:30N 23°34' E 119°49'510.6
2017-Dec-10 06:00N 23°40' E 119°49'611.2
2017-Dec-10 05:30N 23°45' E 119°49'10912.4
2017-Dec-09 20:45N 25°15' E 120°57'512.3
2017-Dec-09 20:20N 25°19' E 121°00'612.6
2017-Dec-09 19:51N 25°24' E 121°04'512.8
2017-Dec-09 19:30N 25°28' E 121°07'34611.6
2017-Dec-08 13:44N 31°06' E 122°31'510.8
2017-Dec-08 13:18N 31°06' E 122°25'4 9.8
2017-Dec-08 12:54N 31°06' E 122°21'1413.8
2017-Dec-08 11:54N 31°13' E 122°07'1014.3
2017-Dec-08 11:11N 31°15' E 121°55'514.4
2017-Dec-08 10:51N 31°17' E 121°50'  
Track history (hours):
 
Tides and Currents Weather Stations Pressure Air Temp Water Temp Dewpoint Dewpoint Depression Visibility Wind Speed Wind Dir Waves Ship Positions

Parandowski

Last reported at 2017-Dec-10 13:52 UTC. Time now 2017-Dec-12 19:54 UTC.
Position N 22°03' E 119°23'.

Length 200 m; draft 10 m.

Type: Ship. MMSI: 248403000.

Date/timePositionNaut miles runAvg speedWind from/ knotsBaromVisibWave heightAir tempDewpointWater temp
2017-Dec-10 13:52N 22°03' E 119°23'512.1
2017-Dec-10 13:29N 22°07' E 119°26'612.7
2017-Dec-10 13:00N 22°12' E 119°30'713.0
2017-Dec-10 12:28N 22°18' E 119°34'613.1
2017-Dec-10 12:00N 22°23' E 119°37'713.9
2017-Dec-10 11:30N 22°29' E 119°41'2413.7
2017-Dec-10 09:45N 22°52' E 119°48'1613.8
2017-Dec-10 08:35N 23°09' E 119°48'213.0
2017-Dec-10 08:25N 23°11' E 119°48'613.2
2017-Dec-10 08:00N 23°16' E 119°49'612.8
2017-Dec-10 07:30N 23°22' E 119°49'612.4
2017-Dec-10 07:01N 23°29' E 119°49'611.5
2017-Dec-10 06:30N 23°34' E 119°49'510.6
2017-Dec-10 06:00N 23°40' E 119°49'611.2
2017-Dec-10 05:30N 23°45' E 119°49'10912.4
2017-Dec-09 20:45N 25°15' E 120°57'512.3
2017-Dec-09 20:20N 25°19' E 121°00'612.6
2017-Dec-09 19:51N 25°24' E 121°04'512.8
2017-Dec-09 19:30N 25°28' E 121°07'34611.6
2017-Dec-08 13:44N 31°06' E 122°31'510.8
2017-Dec-08 13:18N 31°06' E 122°25'4 9.8
2017-Dec-08 12:54N 31°06' E 122°21'1413.8
2017-Dec-08 11:54N 31°13' E 122°07'1014.3
2017-Dec-08 11:11N 31°15' E 121°55'514.4
2017-Dec-08 10:51N 31°17' E 121°50'  

Dump ship's entire track history